Feijo, Brazil
Current Conditions -  °F | °C
As of 4:00 AM on Wednesday 26 Nov 2014 (Local Time) from SBPK Reporting Station
Light Rain Light Rain  
Wind Chill: 70°   Ceiling: 2000
Heat Index: 70°   Visibility: 6mi
Dew Point: 68°   Wind: 6mph
Humidity: 94%   Direction: 170°S
Pressure: 29.83"   Gusts: NA
Location:  32.52°S, 53.1°W
Report Text: SBPK 260600Z 17005KT 9999 -RA SCT010 BKN020 21/20 Q1010
Loading
Personal Weather Stations






























Interactive Weather Map New forecast layout! Learn more

10-Day Weather Forecast

Advertisements
Track Severe Weather on mobile